sensor_id;sensor_type;location;lat;lon;timestamp;P1;durP1;ratioP1;P2;durP2;ratioP2
77953;SDS011;67151;52.544;6.034;2023-09-12T00:00:08;10.7;;;9.6;;
77953;SDS011;67151;52.544;6.034;2023-09-12T00:00:23;10.6;;;9.6;;
77953;SDS011;67151;52.544;6.034;2023-09-12T00:00:38;10.7;;;9.7;;
77953;SDS011;67151;52.544;6.034;2023-09-12T00:01:03;10.5;;;9.5;;
77953;SDS011;67151;52.544;6.034;2023-09-12T00:01:11;10.6;;;9.6;;
77953;SDS011;67151;52.544;6.034;2023-09-12T00:01:23;10.9;;;9.8;;
77953;SDS011;67151;52.544;6.034;2023-09-12T00:01:39;10.7;;;9.6;;
77953;SDS011;67151;52.544;6.034;2023-09-12T00:01:53;10.4;;;9.5;;
77953;SDS011;67151;52.544;6.034;2023-09-12T00:02:08;10.1;;;9.2;;
77953;SDS011;67151;52.544;6.034;2023-09-12T00:02:23;10.1;;;9.2;;
77953;SDS011;67151;52.544;6.034;2023-09-12T00:02:38;10.1;;;9.2;;
77953;SDS011;67151;52.544;6.034;2023-09-12T00:02:53;10.1;;;9.2;;
77953;SDS011;67151;52.544;6.034;2023-09-12T00:03:08;10.2;;;9.2;;
77953;SDS011;67151;52.544;6.034;2023-09-12T00:03:23;10.5;;;9.4;;
77953;SDS011;67151;52.544;6.034;2023-09-12T00:03:38;10.2;;;9.2;;
77953;SDS011;67151;52.544;6.034;2023-09-12T00:03:53;10;;;9.1;;
77953;SDS011;67151;52.544;6.034;2023-09-12T00:04:08;10.4;;;9.4;;
77953;SDS011;67151;52.544;6.034;2023-09-12T00:04:23;10.5;;;9.5;;
77953;SDS011;67151;52.544;6.034;2023-09-12T00:04:40;10.1;;;9.1;;
77953;SDS011;67151;52.544;6.034;2023-09-12T00:04:53;10.6;;;9.5;;
77953;SDS011;67151;52.544;6.034;2023-09-12T00:05:08;11;;;9.9;;
77953;SDS011;67151;52.544;6.034;2023-09-12T00:05:23;10.6;;;9.6;;
77953;SDS011;67151;52.544;6.034;2023-09-12T00:05:38;10.5;;;9.5;;
77953;SDS011;67151;52.544;6.034;2023-09-12T00:05:53;10.8;;;9.8;;
77953;SDS011;67151;52.544;6.034;2023-09-12T00:06:08;10.7;;;9.6;;
77953;SDS011;67151;52.544;6.034;2023-09-12T00:06:23;10.4;;;9.4;;
77953;SDS011;67151;52.544;6.034;2023-09-12T00:06:38;10.4;;;9.5;;
77953;SDS011;67151;52.544;6.034;2023-09-12T00:06:53;10.6;;;9.7;;
77953;SDS011;67151;52.544;6.034;2023-09-12T00:07:08;10.3;;;9.4;;
77953;SDS011;67151;52.544;6.034;2023-09-12T00:07:23;10.2;;;9.2;;
77953;SDS011;67151;52.544;6.034;2023-09-12T00:07:38;10.3;;;9.3;;
77953;SDS011;67151;52.544;6.034;2023-09-12T00:07:53;10;;;9.1;;
77953;SDS011;67151;52.544;6.034;2023-09-12T00:08:08;9.9;;;9;;
77953;SDS011;67151;52.544;6.034;2023-09-12T00:08:23;10.4;;;9.4;;
77953;SDS011;67151;52.544;6.034;2023-09-12T00:08:38;10.5;;;9.5;;
77953;SDS011;67151;52.544;6.034;2023-09-12T00:08:53;10.3;;;9.4;;
77953;SDS011;67151;52.544;6.034;2023-09-12T00:09:08;10.5;;;9.6;;
77953;SDS011;67151;52.544;6.034;2023-09-12T00:09:23;10.3;;;9.4;;
77953;SDS011;67151;52.544;6.034;2023-09-12T00:09:38;10.2;;;9.3;;
77953;SDS011;67151;52.544;6.034;2023-09-12T00:09:53;10.4;;;9.4;;
77953;SDS011;67151;52.544;6.034;2023-09-12T00:10:08;10.4;;;9.4;;
77953;SDS011;67151;52.544;6.034;2023-09-12T00:10:23;10.5;;;9.5;;
77953;SDS011;67151;52.544;6.034;2023-09-12T00:10:38;10.4;;;9.4;;
77953;SDS011;67151;52.544;6.034;2023-09-12T00:11:00;9.9;;;9;;
77953;SDS011;67151;52.544;6.034;2023-09-12T00:11:08;10.4;;;9.4;;
77953;SDS011;67151;52.544;6.034;2023-09-12T00:11:23;10.4;;;9.4;;
77953;SDS011;67151;52.544;6.034;2023-09-12T00:11:38;10.4;;;9.5;;
77953;SDS011;67151;52.544;6.034;2023-09-12T00:11:53;10.7;;;9.7;;
77953;SDS011;67151;52.544;6.034;2023-09-12T00:12:08;10.6;;;9.5;;
77953;SDS011;67151;52.544;6.034;2023-09-12T00:12:23;10.8;;;9.7;;
77953;SDS011;67151;52.544;6.034;2023-09-12T00:12:38;10.6;;;9.5;;
77953;SDS011;67151;52.544;6.034;2023-09-12T00:12:53;10.5;;;9.4;;
77953;SDS011;67151;52.544;6.034;2023-09-12T00:13:08;10.8;;;9.8;;
77953;SDS011;67151;52.544;6.034;2023-09-12T00:13:23;10.9;;;9.9;;
77953;SDS011;67151;52.544;6.034;2023-09-12T00:13:38;10.3;;;9.3;;
77953;SDS011;67151;52.544;6.034;2023-09-12T00:13:53;9.9;;;9;;
77953;SDS011;67151;52.544;6.034;2023-09-12T00:14:08;10.4;;;9.5;;
77953;SDS011;67151;52.544;6.034;2023-09-12T00:14:23;10.9;;;9.9;;
77953;SDS011;67151;52.544;6.034;2023-09-12T00:14:38;11;;;10;;
77953;SDS011;67151;52.544;6.034;2023-09-12T00:14:53;10.7;;;9.8;;
77953;SDS011;67151;52.544;6.034;2023-09-12T00:15:08;10.6;;;9.6;;
77953;SDS011;67151;52.544;6.034;2023-09-12T00:15:23;10.4;;;9.4;;
77953;SDS011;67151;52.544;6.034;2023-09-12T00:15:38;10.4;;;9.4;;
77953;SDS011;67151;52.544;6.034;2023-09-12T00:15:53;10.4;;;9.4;;
77953;SDS011;67151;52.544;6.034;2023-09-12T00:16:08;10.2;;;9.3;;
77953;SDS011;67151;52.544;6.034;2023-09-12T00:16:23;10.5;;;9.6;;
77953;SDS011;67151;52.544;6.034;2023-09-12T00:16:38;10.7;;;9.8;;
77953;SDS011;67151;52.544;6.034;2023-09-12T00:16:53;10.6;;;9.7;;
77953;SDS011;67151;52.544;6.034;2023-09-12T00:17:08;10.8;;;9.8;;
77953;SDS011;67151;52.544;6.034;2023-09-12T00:17:23;11;;;10;;
77953;SDS011;67151;52.544;6.034;2023-09-12T00:17:38;10.8;;;9.8;;
77953;SDS011;67151;52.544;6.034;2023-09-12T00:17:53;10.7;;;9.7;;
77953;SDS011;67151;52.544;6.034;2023-09-12T00:18:08;10.6;;;9.6;;
77953;SDS011;67151;52.544;6.034;2023-09-12T00:18:23;10.6;;;9.5;;
77953;SDS011;67151;52.544;6.034;2023-09-12T00:18:38;10;;;9;;
77953;SDS011;67151;52.544;6.034;2023-09-12T00:18:53;9.8;;;8.9;;
77953;SDS011;67151;52.544;6.034;2023-09-12T00:19:08;10.2;;;9.2;;
77953;SDS011;67151;52.544;6.034;2023-09-12T00:19:23;10.1;;;9.1;;
77953;SDS011;67151;52.544;6.034;2023-09-12T00:19:38;10.3;;;9.3;;
77953;SDS011;67151;52.544;6.034;2023-09-12T00:19:53;10.7;;;9.7;;
77953;SDS011;67151;52.544;6.034;2023-09-12T00:20:08;10.6;;;9.7;;
77953;SDS011;67151;52.544;6.034;2023-09-12T00:20:23;10.2;;;9.3;;
77953;SDS011;67151;52.544;6.034;2023-09-12T00:20:38;10.2;;;9.3;;
77953;SDS011;67151;52.544;6.034;2023-09-12T00:20:53;10.5;;;9.5;;
77953;SDS011;67151;52.544;6.034;2023-09-12T00:21:08;10.4;;;9.4;;
77953;SDS011;67151;52.544;6.034;2023-09-12T00:21:23;10.5;;;9.5;;
77953;SDS011;67151;52.544;6.034;2023-09-12T00:21:38;10.6;;;9.6;;
77953;SDS011;67151;52.544;6.034;2023-09-12T00:21:53;10.6;;;9.6;;
77953;SDS011;67151;52.544;6.034;2023-09-12T00:22:08;10.4;;;9.5;;
77953;SDS011;67151;52.544;6.034;2023-09-12T00:22:23;10.1;;;9.2;;
77953;SDS011;67151;52.544;6.034;2023-09-12T00:22:38;10;;;9;;
77953;SDS011;67151;52.544;6.034;2023-09-12T00:22:53;10.1;;;9.1;;
77953;SDS011;67151;52.544;6.034;2023-09-12T00:23:08;10.3;;;9.3;;
77953;SDS011;67151;52.544;6.034;2023-09-12T00:23:23;10.3;;;9.3;;
77953;SDS011;67151;52.544;6.034;2023-09-12T00:23:38;10.4;;;9.4;;
77953;SDS011;67151;52.544;6.034;2023-09-12T00:23:53;10.2;;;9.3;;
77953;SDS011;67151;52.544;6.034;2023-09-12T00:24:08;10.4;;;9.4;;
77953;SDS011;67151;52.544;6.034;2023-09-12T00:24:23;10.5;;;9.5;;
77953;SDS011;67151;52.544;6.034;2023-09-12T00:24:38;10.3;;;9.4;;
77953;SDS011;67151;52.544;6.034;2023-09-12T00:24:53;10.2;;;9.2;;
77953;SDS011;67151;52.544;6.034;2023-09-12T00:25:08;10.2;;;9.2;;
77953;SDS011;67151;52.544;6.034;2023-09-12T00:25:23;10.3;;;9.4;;
77953;SDS011;67151;52.544;6.034;2023-09-12T00:25:38;10.1;;;9.2;;
77953;SDS011;67151;52.544;6.034;2023-09-12T00:25:53;10.2;;;9.3;;
77953;SDS011;67151;52.544;6.034;2023-09-12T00:26:08;10.5;;;9.5;;
77953;SDS011;67151;52.544;6.034;2023-09-12T00:26:23;10.4;;;9.4;;
77953;SDS011;67151;52.544;6.034;2023-09-12T00:26:38;10.4;;;9.4;;
77953;SDS011;67151;52.544;6.034;2023-09-12T00:26:53;10.4;;;9.4;;
77953;SDS011;67151;52.544;6.034;2023-09-12T00:27:08;10.5;;;9.5;;
77953;SDS011;67151;52.544;6.034;2023-09-12T00:27:23;10;;;9.1;;
77953;SDS011;67151;52.544;6.034;2023-09-12T00:27:38;10.3;;;9.3;;
77953;SDS011;67151;52.544;6.034;2023-09-12T00:27:53;10.4;;;9.4;;
77953;SDS011;67151;52.544;6.034;2023-09-12T00:28:08;10;;;9.1;;
77953;SDS011;67151;52.544;6.034;2023-09-12T00:28:23;10.1;;;9.2;;
77953;SDS011;67151;52.544;6.034;2023-09-12T00:28:38;10.1;;;9.2;;
77953;SDS011;67151;52.544;6.034;2023-09-12T00:28:53;10.2;;;9.3;;
77953;SDS011;67151;52.544;6.034;2023-09-12T00:29:08;10.2;;;9.3;;
77953;SDS011;67151;52.544;6.034;2023-09-12T00:29:23;10.5;;;9.5;;
77953;SDS011;67151;52.544;6.034;2023-09-12T00:29:38;10.8;;;9.8;;
77953;SDS011;67151;52.544;6.034;2023-09-12T00:29:53;10.5;;;9.6;;
77953;SDS011;67151;52.544;6.034;2023-09-12T00:30:08;10.3;;;9.4;;
77953;SDS011;67151;52.544;6.034;2023-09-12T00:30:23;10.2;;;9.3;;
77953;SDS011;67151;52.544;6.034;2023-09-12T00:30:39;10.5;;;9.5;;
77953;SDS011;67151;52.544;6.034;2023-09-12T00:30:53;10.7;;;9.7;;
77953;SDS011;67151;52.544;6.034;2023-09-12T00:31:08;10.8;;;9.8;;
77953;SDS011;67151;52.544;6.034;2023-09-12T00:31:23;10.8;;;9.7;;
77953;SDS011;67151;52.544;6.034;2023-09-12T00:31:38;10.3;;;9.2;;
77953;SDS011;67151;52.544;6.034;2023-09-12T00:31:53;10.2;;;9.2;;
77953;SDS011;67151;52.544;6.034;2023-09-12T00:32:08;10.4;;;9.4;;
77953;SDS011;67151;52.544;6.034;2023-09-12T00:32:23;10.6;;;9.5;;
77953;SDS011;67151;52.544;6.034;2023-09-12T00:32:38;10.4;;;9.4;;
77953;SDS011;67151;52.544;6.034;2023-09-12T00:32:53;10.5;;;9.4;;
77953;SDS011;67151;52.544;6.034;2023-09-12T00:33:08;10.2;;;9.2;;
77953;SDS011;67151;52.544;6.034;2023-09-12T00:33:23;9.8;;;9;;
77953;SDS011;67151;52.544;6.034;2023-09-12T00:33:38;10.2;;;9.3;;
77953;SDS011;67151;52.544;6.034;2023-09-12T00:33:53;10.4;;;9.4;;
77953;SDS011;67151;52.544;6.034;2023-09-12T00:34:08;10.3;;;9.3;;
77953;SDS011;67151;52.544;6.034;2023-09-12T00:34:23;10.5;;;9.5;;
77953;SDS011;67151;52.544;6.034;2023-09-12T00:34:38;10.6;;;9.6;;
77953;SDS011;67151;52.544;6.034;2023-09-12T00:34:53;10.5;;;9.5;;
77953;SDS011;67151;52.544;6.034;2023-09-12T00:35:08;10.6;;;9.6;;
77953;SDS011;67151;52.544;6.034;2023-09-12T00:35:23;10.6;;;9.6;;
77953;SDS011;67151;52.544;6.034;2023-09-12T00:35:38;10.3;;;9.3;;
77953;SDS011;67151;52.544;6.034;2023-09-12T00:35:54;10.2;;;9.3;;
77953;SDS011;67151;52.544;6.034;2023-09-12T00:36:08;10;;;9.1;;
77953;SDS011;67151;52.544;6.034;2023-09-12T00:36:23;9.9;;;9;;
77953;SDS011;67151;52.544;6.034;2023-09-12T00:36:38;10.7;;;9.7;;
77953;SDS011;67151;52.544;6.034;2023-09-12T00:36:53;10.3;;;9.3;;
77953;SDS011;67151;52.544;6.034;2023-09-12T00:37:08;9.7;;;8.8;;
77953;SDS011;67151;52.544;6.034;2023-09-12T00:37:23;10.3;;;9.3;;
77953;SDS011;67151;52.544;6.034;2023-09-12T00:37:38;10.6;;;9.5;;
77953;SDS011;67151;52.544;6.034;2023-09-12T00:37:53;10.5;;;9.5;;
77953;SDS011;67151;52.544;6.034;2023-09-12T00:38:08;10.3;;;9.3;;
77953;SDS011;67151;52.544;6.034;2023-09-12T00:38:23;10.3;;;9.3;;
77953;SDS011;67151;52.544;6.034;2023-09-12T00:38:38;10.5;;;9.4;;
77953;SDS011;67151;52.544;6.034;2023-09-12T00:38:53;10.6;;;9.5;;
77953;SDS011;67151;52.544;6.034;2023-09-12T00:39:08;10.2;;;9.3;;
77953;SDS011;67151;52.544;6.034;2023-09-12T00:39:23;10.3;;;9.4;;
77953;SDS011;67151;52.544;6.034;2023-09-12T00:39:38;10.4;;;9.5;;
77953;SDS011;67151;52.544;6.034;2023-09-12T00:39:53;10.3;;;9.4;;
77953;SDS011;67151;52.544;6.034;2023-09-12T00:40:08;10.1;;;9.2;;
77953;SDS011;67151;52.544;6.034;2023-09-12T00:40:23;10.1;;;9.2;;
77953;SDS011;67151;52.544;6.034;2023-09-12T00:40:38;10;;;9.1;;
77953;SDS011;67151;52.544;6.034;2023-09-12T00:40:53;10.2;;;9.2;;
77953;SDS011;67151;52.544;6.034;2023-09-12T00:41:08;10.4;;;9.4;;
77953;SDS011;67151;52.544;6.034;2023-09-12T00:41:23;10.2;;;9.2;;
77953;SDS011;67151;52.544;6.034;2023-09-12T00:41:38;9.9;;;9;;
77953;SDS011;67151;52.544;6.034;2023-09-12T00:41:53;10.2;;;9.3;;
77953;SDS011;67151;52.544;6.034;2023-09-12T00:42:08;10.4;;;9.5;;
77953;SDS011;67151;52.544;6.034;2023-09-12T00:42:24;10;;;9.1;;
77953;SDS011;67151;52.544;6.034;2023-09-12T00:42:38;10;;;9.1;;
77953;SDS011;67151;52.544;6.034;2023-09-12T00:42:53;10.6;;;9.7;;
77953;SDS011;67151;52.544;6.034;2023-09-12T00:43:08;10.7;;;9.7;;
77953;SDS011;67151;52.544;6.034;2023-09-12T00:43:23;10.4;;;9.4;;
77953;SDS011;67151;52.544;6.034;2023-09-12T00:43:38;9.9;;;9;;
77953;SDS011;67151;52.544;6.034;2023-09-12T00:43:53;10;;;9.1;;
77953;SDS011;67151;52.544;6.034;2023-09-12T00:44:09;10.4;;;9.4;;
77953;SDS011;67151;52.544;6.034;2023-09-12T00:44:23;10.4;;;9.4;;
77953;SDS011;67151;52.544;6.034;2023-09-12T00:44:38;10.1;;;9.2;;
77953;SDS011;67151;52.544;6.034;2023-09-12T00:44:53;10.2;;;9.2;;
77953;SDS011;67151;52.544;6.034;2023-09-12T00:45:08;10.3;;;9.3;;
77953;SDS011;67151;52.544;6.034;2023-09-12T00:45:23;10.2;;;9.2;;
77953;SDS011;67151;52.544;6.034;2023-09-12T00:45:38;10.4;;;9.4;;
77953;SDS011;67151;52.544;6.034;2023-09-12T00:45:53;10.4;;;9.5;;
77953;SDS011;67151;52.544;6.034;2023-09-12T00:46:08;10.2;;;9.3;;
77953;SDS011;67151;52.544;6.034;2023-09-12T00:46:23;9.9;;;9;;
77953;SDS011;67151;52.544;6.034;2023-09-12T00:46:38;9.6;;;8.7;;
77953;SDS011;67151;52.544;6.034;2023-09-12T00:46:53;9.9;;;9;;
77953;SDS011;67151;52.544;6.034;2023-09-12T00:47:08;10.4;;;9.4;;
77953;SDS011;67151;52.544;6.034;2023-09-12T00:47:23;10.7;;;9.6;;
77953;SDS011;67151;52.544;6.034;2023-09-12T00:47:38;10.5;;;9.5;;
77953;SDS011;67151;52.544;6.034;2023-09-12T00:47:53;9.9;;;9;;
77953;SDS011;67151;52.544;6.034;2023-09-12T00:48:08;10;;;9.1;;
77953;SDS011;67151;52.544;6.034;2023-09-12T00:48:23;10.3;;;9.3;;
77953;SDS011;67151;52.544;6.034;2023-09-12T00:48:38;10.2;;;9.1;;
77953;SDS011;67151;52.544;6.034;2023-09-12T00:48:53;9.9;;;8.9;;
77953;SDS011;67151;52.544;6.034;2023-09-12T00:49:08;10.1;;;9.1;;
77953;SDS011;67151;52.544;6.034;2023-09-12T00:49:23;10.4;;;9.4;;
77953;SDS011;67151;52.544;6.034;2023-09-12T00:49:38;10;;;9.1;;
77953;SDS011;67151;52.544;6.034;2023-09-12T00:49:53;9.9;;;9;;
77953;SDS011;67151;52.544;6.034;2023-09-12T00:50:08;10;;;9.1;;
77953;SDS011;67151;52.544;6.034;2023-09-12T00:50:23;10.1;;;9.2;;
77953;SDS011;67151;52.544;6.034;2023-09-12T00:50:38;10.5;;;9.5;;
77953;SDS011;67151;52.544;6.034;2023-09-12T00:50:53;10.4;;;9.4;;
77953;SDS011;67151;52.544;6.034;2023-09-12T00:51:08;10;;;9.1;;
77953;SDS011;67151;52.544;6.034;2023-09-12T00:51:23;9.7;;;8.8;;
77953;SDS011;67151;52.544;6.034;2023-09-12T00:51:38;9.6;;;8.7;;
77953;SDS011;67151;52.544;6.034;2023-09-12T00:51:53;9.8;;;8.9;;
77953;SDS011;67151;52.544;6.034;2023-09-12T00:52:08;9.9;;;8.9;;
77953;SDS011;67151;52.544;6.034;2023-09-12T00:52:23;10;;;9.1;;
77953;SDS011;67151;52.544;6.034;2023-09-12T00:52:38;10.1;;;9.2;;
77953;SDS011;67151;52.544;6.034;2023-09-12T00:52:53;10.1;;;9.2;;
77953;SDS011;67151;52.544;6.034;2023-09-12T00:53:08;9.9;;;8.9;;
77953;SDS011;67151;52.544;6.034;2023-09-12T00:53:23;9.8;;;8.8;;
77953;SDS011;67151;52.544;6.034;2023-09-12T00:53:38;10.4;;;9.4;;
77953;SDS011;67151;52.544;6.034;2023-09-12T00:53:53;10.5;;;9.5;;
77953;SDS011;67151;52.544;6.034;2023-09-12T00:54:08;10.7;;;9.7;;
77953;SDS011;67151;52.544;6.034;2023-09-12T00:54:23;10.7;;;9.7;;
77953;SDS011;67151;52.544;6.034;2023-09-12T00:54:38;10.4;;;9.4;;
77953;SDS011;67151;52.544;6.034;2023-09-12T00:54:53;10.3;;;9.3;;
77953;SDS011;67151;52.544;6.034;2023-09-12T00:55:08;10.1;;;9.2;;
77953;SDS011;67151;52.544;6.034;2023-09-12T00:55:23;10;;;9.1;;
77953;SDS011;67151;52.544;6.034;2023-09-12T00:55:38;10.2;;;9.2;;
77953;SDS011;67151;52.544;6.034;2023-09-12T00:55:54;10.6;;;9.6;;
77953;SDS011;67151;52.544;6.034;2023-09-12T00:56:08;10.5;;;9.5;;
77953;SDS011;67151;52.544;6.034;2023-09-12T00:56:23;10.6;;;9.6;;
77953;SDS011;67151;52.544;6.034;2023-09-12T00:56:38;10.6;;;9.6;;
77953;SDS011;67151;52.544;6.034;2023-09-12T00:56:53;10.2;;;9.2;;
77953;SDS011;67151;52.544;6.034;2023-09-12T00:57:08;10.2;;;9.2;;
77953;SDS011;67151;52.544;6.034;2023-09-12T00:57:23;10.1;;;9.1;;
77953;SDS011;67151;52.544;6.034;2023-09-12T00:57:38;9.9;;;8.9;;
77953;SDS011;67151;52.544;6.034;2023-09-12T00:57:53;10.1;;;9.1;;
77953;SDS011;67151;52.544;6.034;2023-09-12T00:58:08;9.9;;;9;;
77953;SDS011;67151;52.544;6.034;2023-09-12T00:58:23;10.1;;;9.2;;
77953;SDS011;67151;52.544;6.034;2023-09-12T00:58:38;10.5;;;9.5;;
77953;SDS011;67151;52.544;6.034;2023-09-12T00:58:53;10.3;;;9.3;;
77953;SDS011;67151;52.544;6.034;2023-09-12T00:59:08;10.4;;;9.5;;
77953;SDS011;67151;52.544;6.034;2023-09-12T00:59:23;10.4;;;9.4;;
77953;SDS011;67151;52.544;6.034;2023-09-12T00:59:38;10;;;9.1;;
77953;SDS011;67151;52.544;6.034;2023-09-12T00:59:53;10.5;;;9.5;;
77953;SDS011;67151;52.544;6.034;2023-09-12T01:00:08;10.6;;;9.4;;
77953;SDS011;67151;52.544;6.034;2023-09-12T01:00:23;10.5;;;9.3;;
77953;SDS011;67151;52.544;6.034;2023-09-12T01:00:38;10.5;;;9.5;;
77953;SDS011;67151;52.544;6.034;2023-09-12T01:00:53;10.4;;;9.4;;
77953;SDS011;67151;52.544;6.034;2023-09-12T01:01:08;10.8;;;9.7;;
77953;SDS011;67151;52.544;6.034;2023-09-12T01:01:23;10.5;;;9.5;;
77953;SDS011;67151;52.544;6.034;2023-09-12T01:01:38;9.9;;;9;;
77953;SDS011;67151;52.544;6.034;2023-09-12T01:01:53;10.3;;;9.2;;
77953;SDS011;67151;52.544;6.034;2023-09-12T01:02:08;10.7;;;9.6;;
77953;SDS011;67151;52.544;6.034;2023-09-12T01:02:23;10.4;;;9.5;;
77953;SDS011;67151;52.544;6.034;2023-09-12T01:02:38;10.2;;;9.3;;
77953;SDS011;67151;52.544;6.034;2023-09-12T01:02:53;9.9;;;9;;
77953;SDS011;67151;52.544;6.034;2023-09-12T01:03:08;9.7;;;8.8;;
77953;SDS011;67151;52.544;6.034;2023-09-12T01:03:23;9.7;;;8.8;;
77953;SDS011;67151;52.544;6.034;2023-09-12T01:03:38;9.5;;;8.6;;
77953;SDS011;67151;52.544;6.034;2023-09-12T01:03:53;9.9;;;9;;
77953;SDS011;67151;52.544;6.034;2023-09-12T01:04:08;10;;;9;;
77953;SDS011;67151;52.544;6.034;2023-09-12T01:04:23;10;;;9;;
77953;SDS011;67151;52.544;6.034;2023-09-12T01:04:38;10.2;;;9.3;;
77953;SDS011;67151;52.544;6.034;2023-09-12T01:04:53;10.2;;;9.3;;
77953;SDS011;67151;52.544;6.034;2023-09-12T01:05:08;9.7;;;8.8;;
77953;SDS011;67151;52.544;6.034;2023-09-12T01:05:23;9.8;;;8.9;;
77953;SDS011;67151;52.544;6.034;2023-09-12T01:05:38;10;;;9.1;;
77953;SDS011;67151;52.544;6.034;2023-09-12T01:05:53;9.6;;;8.7;;
77953;SDS011;67151;52.544;6.034;2023-09-12T01:06:08;10.1;;;9.1;;
77953;SDS011;67151;52.544;6.034;2023-09-12T01:06:23;10.5;;;9.5;;
77953;SDS011;67151;52.544;6.034;2023-09-12T01:06:38;10.3;;;9.4;;
77953;SDS011;67151;52.544;6.034;2023-09-12T01:06:53;10.2;;;9.2;;
77953;SDS011;67151;52.544;6.034;2023-09-12T01:07:08;10.1;;;9.1;;
77953;SDS011;67151;52.544;6.034;2023-09-12T01:07:23;9.7;;;8.8;;
77953;SDS011;67151;52.544;6.034;2023-09-12T01:07:38;9.7;;;8.8;;
77953;SDS011;67151;52.544;6.034;2023-09-12T01:07:53;10.1;;;9.1;;
77953;SDS011;67151;52.544;6.034;2023-09-12T01:08:08;9.9;;;8.9;;
77953;SDS011;67151;52.544;6.034;2023-09-12T01:08:23;10.2;;;9.2;;
77953;SDS011;67151;52.544;6.034;2023-09-12T01:08:38;10.2;;;9.2;;
77953;SDS011;67151;52.544;6.034;2023-09-12T01:08:53;9.9;;;9;;
77953;SDS011;67151;52.544;6.034;2023-09-12T01:09:08;9.9;;;9;;
77953;SDS011;67151;52.544;6.034;2023-09-12T01:09:23;10;;;9.1;;
77953;SDS011;67151;52.544;6.034;2023-09-12T01:09:38;10;;;9.1;;
77953;SDS011;67151;52.544;6.034;2023-09-12T01:09:53;10;;;9;;
77953;SDS011;67151;52.544;6.034;2023-09-12T01:10:08;9.9;;;8.9;;
77953;SDS011;67151;52.544;6.034;2023-09-12T01:10:23;9.8;;;8.8;;
77953;SDS011;67151;52.544;6.034;2023-09-12T01:10:38;9.7;;;8.7;;
77953;SDS011;67151;52.544;6.034;2023-09-12T01:10:53;10.4;;;9.1;;
77953;SDS011;67151;52.544;6.034;2023-09-12T01:11:08;11;;;9.5;;
77953;SDS011;67151;52.544;6.034;2023-09-12T01:11:23;10.5;;;9.5;;
77953;SDS011;67151;52.544;6.034;2023-09-12T01:11:38;10.2;;;9.3;;
77953;SDS011;67151;52.544;6.034;2023-09-12T01:11:53;9.9;;;9;;
77953;SDS011;67151;52.544;6.034;2023-09-12T01:12:08;9.6;;;8.7;;
77953;SDS011;67151;52.544;6.034;2023-09-12T01:12:23;9.7;;;8.8;;
77953;SDS011;67151;52.544;6.034;2023-09-12T01:12:38;9.5;;;8.6;;
77953;SDS011;67151;52.544;6.034;2023-09-12T01:12:53;9.6;;;8.7;;
77953;SDS011;67151;52.544;6.034;2023-09-12T01:13:08;10;;;9.1;;
77953;SDS011;67151;52.544;6.034;2023-09-12T01:13:23;9.8;;;8.9;;
77953;SDS011;67151;52.544;6.034;2023-09-12T01:13:38;9.5;;;8.6;;
77953;SDS011;67151;52.544;6.034;2023-09-12T01:13:53;9.1;;;8.3;;
77953;SDS011;67151;52.544;6.034;2023-09-12T01:14:08;9.5;;;8.6;;
77953;SDS011;67151;52.544;6.034;2023-09-12T01:14:23;9.9;;;9;;
77953;SDS011;67151;52.544;6.034;2023-09-12T01:14:38;9.7;;;8.8;;
77953;SDS011;67151;52.544;6.034;2023-09-12T01:14:53;9.6;;;8.7;;
77953;SDS011;67151;52.544;6.034;2023-09-12T01:15:08;9.8;;;8.8;;
77953;SDS011;67151;52.544;6.034;2023-09-12T01:15:23;10;;;9;;
77953;SDS011;67151;52.544;6.034;2023-09-12T01:15:38;9.7;;;8.7;;
77953;SDS011;67151;52.544;6.034;2023-09-12T01:15:53;9.9;;;9;;
77953;SDS011;67151;52.544;6.034;2023-09-12T01:16:08;10;;;9.1;;
77953;SDS011;67151;52.544;6.034;2023-09-12T01:16:23;9.8;;;8.9;;
77953;SDS011;67151;52.544;6.034;2023-09-12T01:16:38;9.5;;;8.7;;
77953;SDS011;67151;52.544;6.034;2023-09-12T01:16:53;9.4;;;8.6;;
77953;SDS011;67151;52.544;6.034;2023-09-12T01:17:08;9.7;;;8.8;;
77953;SDS011;67151;52.544;6.034;2023-09-12T01:17:23;9.9;;;9;;
77953;SDS011;67151;52.544;6.034;2023-09-12T01:17:38;10.1;;;9.1;;
77953;SDS011;67151;52.544;6.034;2023-09-12T01:17:53;10;;;9.1;;
77953;SDS011;67151;52.544;6.034;2023-09-12T01:18:08;9.5;;;8.6;;
77953;SDS011;67151;52.544;6.034;2023-09-12T01:18:24;9.5;;;8.6;;
77953;SDS011;67151;52.544;6.034;2023-09-12T01:18:38;9.6;;;8.7;;
77953;SDS011;67151;52.544;6.034;2023-09-12T01:18:53;9.9;;;9;;
77953;SDS011;67151;52.544;6.034;2023-09-12T01:19:08;10;;;9.2;;
77953;SDS011;67151;52.544;6.034;2023-09-12T01:19:23;9.8;;;8.9;;
77953;SDS011;67151;52.544;6.034;2023-09-12T01:19:38;9.9;;;8.9;;
77953;SDS011;67151;52.544;6.034;2023-09-12T01:19:53;10.1;;;9.1;;
77953;SDS011;67151;52.544;6.034;2023-09-12T01:20:08;10.3;;;9.3;;
77953;SDS011;67151;52.544;6.034;2023-09-12T01:20:24;10.4;;;9.4;;
77953;SDS011;67151;52.544;6.034;2023-09-12T01:20:39;10;;;9.1;;
77953;SDS011;67151;52.544;6.034;2023-09-12T01:20:59;10;;;9.1;;
77953;SDS011;67151;52.544;6.034;2023-09-12T01:21:26;10.3;;;9.3;;
77953;SDS011;67151;52.544;6.034;2023-09-12T01:21:36;10.1;;;9.1;;
77953;SDS011;67151;52.544;6.034;2023-09-12T01:21:40;9.5;;;8.6;;
77953;SDS011;67151;52.544;6.034;2023-09-12T01:21:58;9.9;;;9;;
77953;SDS011;67151;52.544;6.034;2023-09-12T01:22:13;10;;;9.1;;
77953;SDS011;67151;52.544;6.034;2023-09-12T01:22:28;10.2;;;9.3;;
77953;SDS011;67151;52.544;6.034;2023-09-12T01:22:42;10.3;;;9.3;;
77953;SDS011;67151;52.544;6.034;2023-09-12T01:22:55;9.8;;;8.9;;
77953;SDS011;67151;52.544;6.034;2023-09-12T01:23:12;9.8;;;8.9;;
77953;SDS011;67151;52.544;6.034;2023-09-12T01:23:28;9.5;;;8.6;;
77953;SDS011;67151;52.544;6.034;2023-09-12T01:23:41;9.5;;;8.6;;
77953;SDS011;67151;52.544;6.034;2023-09-12T01:23:56;10;;;9;;
77953;SDS011;67151;52.544;6.034;2023-09-12T01:24:15;9.9;;;8.9;;
77953;SDS011;67151;52.544;6.034;2023-09-12T01:24:37;9.4;;;8.5;;
77953;SDS011;67151;52.544;6.034;2023-09-12T01:24:45;9.7;;;8.8;;
77953;SDS011;67151;52.544;6.034;2023-09-12T01:25:08;10.3;;;9.3;;
77953;SDS011;67151;52.544;6.034;2023-09-12T01:25:32;10;;;9.1;;
77953;SDS011;67151;52.544;6.034;2023-09-12T01:25:42;10.6;;;9.5;;
77953;SDS011;67151;52.544;6.034;2023-09-12T01:25:42;10.4;;;9.3;;
77953;SDS011;67151;52.544;6.034;2023-09-12T01:25:59;10.2;;;9.3;;
77953;SDS011;67151;52.544;6.034;2023-09-12T01:26:13;9.8;;;8.9;;
77953;SDS011;67151;52.544;6.034;2023-09-12T01:26:27;9.8;;;8.8;;
77953;SDS011;67151;52.544;6.034;2023-09-12T01:26:41;10;;;9;;
77953;SDS011;67151;52.544;6.034;2023-09-12T01:26:56;9.9;;;9;;
77953;SDS011;67151;52.544;6.034;2023-09-12T01:27:12;9.9;;;9;;
77953;SDS011;67151;52.544;6.034;2023-09-12T01:27:24;9.7;;;8.8;;
77953;SDS011;67151;52.544;6.034;2023-09-12T01:27:38;10;;;9.1;;
77953;SDS011;67151;52.544;6.034;2023-09-12T01:27:53;10.4;;;9.3;;
77953;SDS011;67151;52.544;6.034;2023-09-12T01:28:09;10.4;;;9.3;;
77953;SDS011;67151;52.544;6.034;2023-09-12T01:28:23;10.4;;;9.4;;
77953;SDS011;67151;52.544;6.034;2023-09-12T01:28:38;10.3;;;9.4;;
77953;SDS011;67151;52.544;6.034;2023-09-12T01:28:53;10;;;9.1;;
77953;SDS011;67151;52.544;6.034;2023-09-12T01:29:08;9.9;;;9;;
77953;SDS011;67151;52.544;6.034;2023-09-12T01:29:23;10.3;;;9.3;;
77953;SDS011;67151;52.544;6.034;2023-09-12T01:29:38;10.4;;;9.4;;
77953;SDS011;67151;52.544;6.034;2023-09-12T01:29:53;10.2;;;9.3;;
77953;SDS011;67151;52.544;6.034;2023-09-12T01:30:08;10.1;;;9.2;;
77953;SDS011;67151;52.544;6.034;2023-09-12T01:30:23;10.2;;;9.3;;
77953;SDS011;67151;52.544;6.034;2023-09-12T01:30:38;10.3;;;9.3;;
77953;SDS011;67151;52.544;6.034;2023-09-12T01:30:53;10.6;;;9.6;;
77953;SDS011;67151;52.544;6.034;2023-09-12T01:31:08;10.5;;;9.4;;
77953;SDS011;67151;52.544;6.034;2023-09-12T01:31:23;9.7;;;8.7;;
77953;SDS011;67151;52.544;6.034;2023-09-12T01:31:38;9.3;;;8.4;;
77953;SDS011;67151;52.544;6.034;2023-09-12T01:31:53;9.7;;;8.8;;
77953;SDS011;67151;52.544;6.034;2023-09-12T01:32:08;10;;;9.1;;
77953;SDS011;67151;52.544;6.034;2023-09-12T01:32:23;10;;;9.1;;
77953;SDS011;67151;52.544;6.034;2023-09-12T01:32:38;9.9;;;9;;